createdAt,value
2023-05-20T00:05:11.804Z,85.46
2023-05-20T00:08:18.901Z,85.91
2023-05-20T00:11:42.536Z,85.35
2023-05-20T00:15:03.720Z,85.47
2023-05-20T00:18:24.618Z,86.17
2023-05-20T00:21:54.307Z,86.27
2023-05-20T00:25:07.653Z,86.16
2023-05-20T00:28:16.228Z,86.57
2023-05-20T00:31:22.949Z,86.30
2023-05-20T00:34:28.932Z,86.45
2023-05-20T00:37:35.865Z,85.86
2023-05-20T00:40:41.868Z,85.55
2023-05-20T00:43:51.365Z,85.33
2023-05-20T00:46:59.044Z,85.74
2023-05-20T00:50:21.974Z,86.80
2023-05-20T00:53:54.040Z,86.50
2023-05-20T00:57:15.734Z,86.00
2023-05-20T01:00:39.492Z,86.71
2023-05-20T01:04:00.564Z,87.16
2023-05-20T01:07:10.249Z,86.48
2023-05-20T01:10:16.594Z,86.46
2023-05-20T01:13:49.525Z,86.24
2023-05-20T01:17:09.740Z,86.73
2023-05-20T01:20:19.183Z,86.42
2023-05-20T01:23:35.883Z,86.35
2023-05-20T01:26:44.141Z,86.20
2023-05-20T01:29:55.939Z,86.13
2023-05-20T01:33:10.990Z,86.27
2023-05-20T01:36:23.136Z,86.21
2023-05-20T01:39:37.634Z,85.79
2023-05-20T01:42:47.082Z,85.73
2023-05-20T01:45:53.433Z,85.18
2023-05-20T01:49:01.359Z,85.78
2023-05-20T01:52:08.878Z,85.89
2023-05-20T01:55:26.577Z,85.73
2023-05-20T01:58:32.441Z,85.92
2023-05-20T02:01:49.519Z,85.72
2023-05-20T02:04:58.122Z,85.59
2023-05-20T02:08:04.946Z,85.50
2023-05-20T02:11:13.735Z,85.50
2023-05-20T02:14:27.032Z,86.16
2023-05-20T02:17:36.649Z,86.74
2023-05-20T02:20:43.618Z,85.91
2023-05-20T02:23:50.864Z,85.62
2023-05-20T02:27:00.574Z,85.16
2023-05-20T02:30:06.933Z,85.89
2023-05-20T02:33:14.301Z,86.34
2023-05-20T02:36:26.302Z,86.66
2023-05-20T02:39:33.346Z,86.11
2023-05-20T02:42:42.132Z,86.09
2023-05-20T02:45:49.343Z,86.02
2023-05-20T02:48:55.542Z,86.44
2023-05-20T02:52:17.887Z,87.14
2023-05-20T02:55:40.224Z,87.55
2023-05-20T02:59:15.499Z,87.67
2023-05-20T03:02:36.850Z,87.98
2023-05-20T03:05:50.740Z,88.03
2023-05-20T03:08:59.644Z,87.37
2023-05-20T03:12:06.896Z,87.29
2023-05-20T03:15:15.753Z,87.12
2023-05-20T03:18:22.550Z,86.79
2023-05-20T03:21:44.196Z,87.04
2023-05-20T03:25:18.061Z,86.70
2023-05-20T03:28:40.341Z,87.33
2023-05-20T03:32:04.857Z,87.81
2023-05-20T03:35:36.746Z,86.91
2023-05-20T03:38:58.411Z,86.53
2023-05-20T03:42:05.308Z,86.29
2023-05-20T03:45:13.117Z,88.19
2023-05-20T03:48:34.019Z,88.09
2023-05-20T03:51:40.119Z,88.20
2023-05-20T03:54:51.474Z,87.76
2023-05-20T03:58:29.812Z,86.70
2023-05-20T04:05:41.608Z,86.88
2023-05-20T04:09:11.793Z,86.63
2023-05-20T04:12:33.582Z,86.68
2023-05-20T04:15:54.726Z,86.81
2023-05-20T04:19:03.113Z,86.85
2023-05-20T04:22:16.231Z,86.37
2023-05-20T04:25:23.381Z,86.26
2023-05-20T04:28:31.666Z,85.78
2023-05-20T04:31:38.835Z,85.05
2023-05-20T04:34:57.711Z,85.53
2023-05-20T04:38:07.802Z,85.24
2023-05-20T04:41:14.526Z,84.75
2023-05-20T04:44:21.390Z,84.61
2023-05-20T04:47:27.774Z,84.63
2023-05-20T04:50:48.982Z,84.19
2023-05-20T04:54:12.558Z,83.59
2023-05-20T04:57:34.868Z,83.52
2023-05-20T05:00:42.082Z,83.53
2023-05-20T05:03:50.536Z,83.44
2023-05-20T05:07:01.349Z,83.09
2023-05-20T05:10:11.920Z,83.51
2023-05-20T05:13:22.065Z,83.02
2023-05-20T05:16:28.654Z,83.41
2023-05-20T05:19:35.766Z,83.26
2023-05-20T05:22:57.382Z,82.78
2023-05-20T05:26:23.139Z,83.64
2023-05-20T05:29:45.362Z,83.33
2023-05-20T05:33:06.777Z,83.20
2023-05-20T05:36:28.929Z,82.98
2023-05-20T05:39:50.504Z,84.07
2023-05-20T05:43:14.369Z,83.06
2023-05-20T05:46:36.108Z,83.16
2023-05-20T05:50:00.156Z,82.46
2023-05-20T05:53:34.738Z,82.58
2023-05-20T05:56:56.996Z,82.44
2023-05-20T06:00:22.878Z,82.15
2023-05-20T06:03:45.970Z,82.60
2023-05-20T06:07:07.228Z,81.73
2023-05-20T06:10:28.200Z,81.46
2023-05-20T06:13:49.636Z,80.80
2023-05-20T06:17:13.339Z,80.37
2023-05-20T06:20:35.016Z,80.12
2023-05-20T06:23:57.200Z,80.44
2023-05-20T06:27:18.238Z,80.46
2023-05-20T06:30:39.083Z,79.54
2023-05-20T06:34:08.404Z,79.39
2023-05-20T06:37:30.358Z,78.92
2023-05-20T06:40:44.103Z,79.30
2023-05-20T06:43:53.438Z,78.53
2023-05-20T06:47:24.271Z,78.11
2023-05-20T06:50:34.965Z,77.25
2023-05-20T06:53:47.672Z,78.42
2023-05-20T06:56:54.384Z,77.05
2023-05-20T07:00:02.601Z,77.67
2023-05-20T07:03:26.717Z,76.73
2023-05-20T07:06:50.467Z,76.57
2023-05-20T07:10:12.977Z,77.23
2023-05-20T07:13:34.392Z,76.75
2023-05-20T07:16:55.365Z,77.04
2023-05-20T07:20:36.190Z,76.44
2023-05-20T07:24:04.267Z,76.34
2023-05-20T07:27:10.745Z,75.51
2023-05-20T07:30:17.760Z,75.85
2023-05-20T07:33:33.210Z,75.82
2023-05-20T07:36:40.285Z,75.53
2023-05-20T07:39:49.053Z,74.91
2023-05-20T07:42:57.488Z,74.27
2023-05-20T07:46:06.402Z,73.96
2023-05-20T07:49:13.552Z,72.93
2023-05-20T07:52:19.995Z,73.48
2023-05-20T07:55:36.546Z,73.55
2023-05-20T07:58:45.215Z,73.27
2023-05-20T08:01:52.479Z,73.19
2023-05-20T08:05:00.115Z,73.54
2023-05-20T08:08:07.920Z,72.53
2023-05-20T08:11:27.619Z,72.25
2023-05-20T08:14:35.141Z,71.33
2023-05-20T08:17:57.611Z,70.93
2023-05-20T08:21:19.442Z,69.97
2023-05-20T08:24:40.517Z,69.75
2023-05-20T08:28:06.303Z,69.21
2023-05-20T08:31:41.169Z,68.34
2023-05-20T08:35:03.902Z,67.88
2023-05-20T08:38:31.031Z,66.89
2023-05-20T08:41:52.988Z,67.13
2023-05-20T08:45:26.761Z,66.32
2023-05-20T08:48:50.005Z,66.49
2023-05-20T08:52:16.902Z,66.86
2023-05-20T08:55:47.043Z,66.85
2023-05-20T08:59:08.298Z,65.07
2023-05-20T09:02:31.836Z,66.41
2023-05-20T09:05:52.987Z,65.18
2023-05-20T09:09:15.074Z,65.18
2023-05-20T09:12:36.105Z,65.94
2023-05-20T09:15:57.860Z,65.67
2023-05-20T09:19:24.563Z,65.22
2023-05-20T09:22:45.951Z,66.37
2023-05-20T09:26:07.963Z,66.79
2023-05-20T09:29:29.874Z,66.64
2023-05-20T09:32:57.303Z,65.51
2023-05-20T09:36:22.491Z,65.76
2023-05-20T09:39:56.917Z,65.02
2023-05-20T09:43:07.570Z,66.03
2023-05-20T09:46:14.514Z,65.06
2023-05-20T09:49:23.102Z,63.34
2023-05-20T09:52:32.347Z,62.73
2023-05-20T09:55:41.476Z,60.17
2023-05-20T09:58:51.207Z,60.06
2023-05-20T10:02:12.549Z,60.64
2023-05-20T10:05:24.955Z,59.91
2023-05-20T10:09:08.724Z,58.46
2023-05-20T10:12:36.828Z,59.93
2023-05-20T10:16:00.909Z,57.42
2023-05-20T10:19:29.159Z,56.05
2023-05-20T10:22:36.202Z,57.52
2023-05-20T10:25:55.439Z,58.09
2023-05-20T10:29:02.361Z,58.53
2023-05-20T10:32:08.891Z,57.37
2023-05-20T10:35:15.795Z,56.38
2023-05-20T10:38:22.429Z,55.33
2023-05-20T10:41:35.165Z,53.03
2023-05-20T10:45:11.863Z,53.32
2023-05-20T10:48:29.428Z,52.70
2023-05-20T10:51:40.439Z,52.93
2023-05-20T10:54:50.154Z,53.03
2023-05-20T10:58:02.462Z,53.24
2023-05-20T11:01:09.676Z,52.70
2023-05-20T11:04:19.960Z,52.23
2023-05-20T11:07:31.427Z,52.43
2023-05-20T11:10:38.203Z,53.82
2023-05-20T11:13:47.835Z,55.58
2023-05-20T11:17:00.203Z,55.39
2023-05-20T11:20:08.098Z,53.84
2023-05-20T11:23:18.657Z,53.05
2023-05-20T11:26:25.697Z,53.13
2023-05-20T11:29:35.556Z,54.14
2023-05-20T11:32:42.671Z,53.02
2023-05-20T11:35:50.440Z,55.18
2023-05-20T11:38:57.364Z,56.10
2023-05-20T11:42:03.827Z,55.59
2023-05-20T11:45:28.558Z,56.28
2023-05-20T11:48:56.695Z,57.19
2023-05-20T11:52:17.860Z,56.57
2023-05-20T11:55:49.503Z,56.34
2023-05-20T11:59:13.758Z,56.03
2023-05-20T12:02:37.940Z,55.89
2023-05-20T12:05:45.264Z,53.53
2023-05-20T12:08:51.539Z,53.07
2023-05-20T12:12:20.616Z,54.22
2023-05-20T12:15:26.833Z,54.39
2023-05-20T12:18:36.526Z,53.49
2023-05-20T12:21:42.602Z,53.26
2023-05-20T12:24:52.232Z,54.46
2023-05-20T12:28:00.440Z,54.86
2023-05-20T12:31:21.511Z,55.81
2023-05-20T12:34:51.818Z,55.92
2023-05-20T12:38:14.931Z,55.59
2023-05-20T12:41:35.935Z,55.85
2023-05-20T12:44:56.965Z,55.54
2023-05-20T12:48:04.503Z,56.01
2023-05-20T12:51:13.053Z,56.60
2023-05-20T12:54:21.310Z,57.17
2023-05-20T12:57:31.828Z,56.94
2023-05-20T13:00:38.957Z,57.55
2023-05-20T13:03:45.177Z,56.71
2023-05-20T13:06:56.090Z,56.63
2023-05-20T13:10:02.475Z,56.89
2023-05-20T13:13:24.295Z,56.82
2023-05-20T13:16:45.371Z,57.07
2023-05-20T13:20:06.986Z,57.18
2023-05-20T13:23:30.430Z,56.33
2023-05-20T13:26:51.849Z,54.94
2023-05-20T13:30:02.163Z,56.16
2023-05-20T13:33:08.167Z,55.15
2023-05-20T13:36:15.991Z,55.71
2023-05-20T13:39:24.479Z,55.46
2023-05-20T13:42:31.942Z,55.99
2023-05-20T13:45:37.889Z,56.10
2023-05-20T13:48:44.783Z,55.85
2023-05-20T13:51:51.245Z,55.08
2023-05-20T13:55:02.918Z,55.27
2023-05-20T13:58:12.805Z,55.51
2023-05-20T14:05:19.226Z,55.14
2023-05-20T14:08:26.604Z,54.20
2023-05-20T14:11:54.242Z,54.72
2023-05-20T14:15:15.404Z,54.57
2023-05-20T14:18:36.464Z,54.35
2023-05-20T14:21:59.195Z,54.38
2023-05-20T14:25:20.521Z,55.16
2023-05-20T14:28:30.048Z,54.72
2023-05-20T14:31:36.074Z,54.78
2023-05-20T14:34:43.043Z,54.18
2023-05-20T14:37:49.166Z,54.47
2023-05-20T14:40:56.168Z,52.93
2023-05-20T14:44:04.881Z,52.90
2023-05-20T14:47:11.838Z,51.58
2023-05-20T14:50:17.966Z,51.20
2023-05-20T14:53:25.930Z,51.21
2023-05-20T14:56:31.960Z,51.80
2023-05-20T14:59:42.016Z,52.37
2023-05-20T15:02:48.095Z,51.07
2023-05-20T15:05:55.153Z,51.60
2023-05-20T15:09:01.201Z,51.64
2023-05-20T15:12:22.845Z,50.47
2023-05-20T15:15:32.141Z,48.93
2023-05-20T15:18:39.363Z,49.07
2023-05-20T15:21:45.442Z,49.49
2023-05-20T15:27:58.230Z,48.77
2023-05-20T15:31:07.754Z,47.59
2023-05-20T15:34:13.851Z,47.77
2023-05-20T15:37:21.852Z,48.53
2023-05-20T15:40:28.493Z,48.64
2023-05-20T15:43:35.591Z,48.46
2023-05-20T15:46:44.458Z,48.43
2023-05-20T15:49:51.806Z,48.59
2023-05-20T15:52:58.416Z,48.58
2023-05-20T15:56:10.838Z,48.98
2023-05-20T15:59:33.648Z,49.21
2023-05-20T16:03:00.036Z,48.96
2023-05-20T16:06:23.159Z,48.92
2023-05-20T16:09:44.091Z,49.05
2023-05-20T16:13:10.772Z,49.81
2023-05-20T16:16:33.201Z,50.17
2023-05-20T16:19:58.901Z,51.36
2023-05-20T16:23:19.863Z,50.74
2023-05-20T16:26:42.231Z,50.83
2023-05-20T16:30:03.352Z,51.37
2023-05-20T16:33:24.298Z,52.08
2023-05-20T16:36:48.220Z,52.42
2023-05-20T16:39:55.079Z,53.29
2023-05-20T16:43:05.076Z,53.02
2023-05-20T16:46:14.921Z,53.50
2023-05-20T16:49:20.996Z,53.63
2023-05-20T16:52:30.503Z,53.90
2023-05-20T16:55:36.671Z,54.57
2023-05-20T16:58:57.606Z,54.66
2023-05-20T17:02:18.619Z,54.98
2023-05-20T17:05:39.534Z,55.54
2023-05-20T17:09:05.349Z,55.58
2023-05-20T17:12:26.403Z,55.44
2023-05-20T17:15:47.298Z,55.74
2023-05-20T17:18:56.684Z,56.30
2023-05-20T17:22:08.594Z,56.70
2023-05-20T17:25:18.109Z,57.46
2023-05-20T17:28:24.421Z,58.44
2023-05-20T17:31:31.192Z,58.30
2023-05-20T17:34:37.240Z,58.77
2023-05-20T17:37:44.108Z,59.70
2023-05-20T17:40:52.726Z,59.52
2023-05-20T17:43:59.715Z,59.82
2023-05-20T17:47:12.046Z,59.82
2023-05-20T17:50:19.003Z,60.33
2023-05-20T17:53:30.589Z,60.47
2023-05-20T17:56:40.070Z,61.57
2023-05-20T17:59:46.281Z,61.45
2023-05-20T18:02:58.034Z,61.49
2023-05-20T18:06:06.441Z,62.13
2023-05-20T18:09:13.568Z,62.21
2023-05-20T18:12:22.196Z,62.71
2023-05-20T18:15:29.131Z,63.41
2023-05-20T18:18:35.588Z,64.11
2023-05-20T18:21:46.393Z,64.52
2023-05-20T18:24:53.037Z,64.79
2023-05-20T18:28:03.752Z,65.01
2023-05-20T18:31:10.993Z,65.47
2023-05-20T18:34:22.569Z,65.95
2023-05-20T18:37:29.271Z,66.27
2023-05-20T18:40:50.611Z,66.56
2023-05-20T18:44:14.507Z,67.46
2023-05-20T18:47:35.787Z,67.45
2023-05-20T18:50:57.165Z,67.77
2023-05-20T18:54:18.237Z,68.03
2023-05-20T18:57:39.595Z,68.86
2023-05-20T19:00:49.011Z,69.00
2023-05-20T19:03:55.633Z,69.57
2023-05-20T19:07:03.975Z,69.79
2023-05-20T19:10:12.615Z,69.58
2023-05-20T19:13:19.975Z,69.87
2023-05-20T19:16:29.663Z,70.05
2023-05-20T19:19:36.892Z,69.59
2023-05-20T19:22:43.499Z,69.68
2023-05-20T19:25:57.058Z,70.13
2023-05-20T19:29:03.302Z,70.21
2023-05-20T19:32:12.882Z,70.82
2023-05-20T19:35:19.521Z,71.08
2023-05-20T19:38:29.218Z,70.93
2023-05-20T19:41:35.442Z,70.15
2023-05-20T19:44:42.527Z,70.18
2023-05-20T19:47:51.403Z,69.89
2023-05-20T19:50:58.409Z,69.69
2023-05-20T19:54:04.736Z,70.07
2023-05-20T19:57:12.183Z,69.82
2023-05-20T20:00:19.230Z,70.05
2023-05-20T20:03:28.877Z,69.83
2023-05-20T20:06:35.091Z,69.11
2023-05-20T20:09:42.127Z,69.06
2023-05-20T20:12:50.228Z,68.88
2023-05-20T20:15:57.321Z,68.29
2023-05-20T20:19:23.228Z,68.12
2023-05-20T20:22:45.168Z,68.02
2023-05-20T20:26:06.174Z,67.83
2023-05-20T20:29:28.714Z,67.68
2023-05-20T20:32:50.761Z,67.53
2023-05-20T20:36:14.622Z,67.08
2023-05-20T20:39:23.118Z,67.35
2023-05-20T20:42:32.651Z,67.51
2023-05-20T20:45:41.022Z,67.22
2023-05-20T20:48:48.645Z,67.57
2023-05-20T20:51:58.210Z,67.90
2023-05-20T20:55:04.943Z,68.28
2023-05-20T20:58:12.611Z,68.36
2023-05-20T21:01:36.603Z,68.89
2023-05-20T21:04:59.561Z,68.68
2023-05-20T21:08:28.088Z,69.59
2023-05-20T21:11:49.649Z,69.46
2023-05-20T21:15:15.276Z,70.09
2023-05-20T21:18:36.282Z,70.47
2023-05-20T21:21:57.259Z,70.55
2023-05-20T21:25:21.321Z,70.70
2023-05-20T21:28:42.506Z,71.15
2023-05-20T21:32:03.531Z,71.37
2023-05-20T21:35:25.557Z,72.09
2023-05-20T21:38:50.196Z,71.73
2023-05-20T21:42:13.873Z,71.94
2023-05-20T21:45:35.756Z,71.98
2023-05-20T21:48:57.154Z,71.62
2023-05-20T21:52:20.781Z,72.14
2023-05-20T21:55:42.333Z,71.92
2023-05-20T21:59:06.012Z,72.14
2023-05-20T22:02:18.465Z,72.27
2023-05-20T22:05:25.040Z,73.14
2023-05-20T22:08:36.354Z,72.94
2023-05-20T22:11:45.397Z,72.94
2023-05-20T22:14:54.985Z,73.49
2023-05-20T22:18:05.320Z,73.16
2023-05-20T22:21:16.439Z,73.16
2023-05-20T22:24:22.479Z,73.58
2023-05-20T22:27:29.674Z,74.13
2023-05-20T22:30:38.648Z,74.38
2023-05-20T22:33:45.454Z,73.88
2023-05-20T22:36:53.816Z,74.62
2023-05-20T22:40:00.948Z,74.54
2023-05-20T22:43:06.985Z,74.79
2023-05-20T22:46:16.486Z,75.23
2023-05-20T22:49:24.076Z,75.60
2023-05-20T22:52:31.089Z,75.61
2023-05-20T22:55:39.029Z,75.72
2023-05-20T22:58:46.106Z,75.88
2023-05-20T23:01:59.517Z,76.47
2023-05-20T23:05:06.986Z,76.06
2023-05-20T23:08:13.054Z,76.28
2023-05-20T23:11:20.059Z,75.71
2023-05-20T23:14:26.345Z,76.10
2023-05-20T23:17:36.174Z,75.93
2023-05-20T23:20:42.141Z,75.93
2023-05-20T23:23:49.013Z,75.89
2023-05-20T23:26:55.722Z,75.55
2023-05-20T23:30:08.739Z,75.72
2023-05-20T23:33:24.796Z,75.42
2023-05-20T23:36:34.826Z,75.91
2023-05-20T23:39:40.992Z,76.23
2023-05-20T23:42:47.876Z,75.61
2023-05-20T23:45:53.846Z,75.81
2023-05-20T23:49:03.428Z,75.31
2023-05-20T23:52:13.680Z,75.16
2023-05-20T23:55:20.514Z,75.13
2023-05-20T23:58:26.633Z,74.86
